Time;durP1;ratioP1;P1;durP2;ratioP2;P2;SDS_P1;SDS_P2;PMS_P1;PMS_P2;Temp;Humidity;BMP_temperature;BMP_pressure;BME280_temperature;BME280_humidity;BME280_pressure;Samples;Min_cycle;Max_cycle;Signal;HPM_P1;HPM_P2
2024/03/22 00:00:11;;;;;;;18.80;9.80;;;;;;;5.29;58.91;100934.95;105380;1257;61201;-58
2024/03/22 00:02:39;;;;;;;16.50;9.70;;;;;;;5.23;59.06;100931.91;105660;1257;63776;-59
2024/03/22 00:05:07;;;;;;;16.40;9.70;;;;;;;5.18;59.16;100929.91;105099;1251;61311;-58
2024/03/22 00:07:34;;;;;;;17.20;10.30;;;;;;;5.13;59.21;100929.09;105269;1256;61189;-58
2024/03/22 00:10:02;;;;;;;20.00;10.90;;;;;;;5.09;59.27;100929.14;105154;1260;64478;-59
2024/03/22 00:12:30;;;;;;;22.00;11.90;;;;;;;5.07;59.29;100924.88;105828;1259;61284;-60
2024/03/22 00:14:57;;;;;;;14.70;8.20;;;;;;;5.04;59.29;100924.32;106336;1251;64241;-59
2024/03/22 00:17:25;;;;;;;12.70;6.50;;;;;;;5.07;59.11;100923.33;106251;1254;61329;-59
2024/03/22 00:19:52;;;;;;;14.50;6.80;;;;;;;5.14;59.03;100920.88;105385;1257;61296;-59
2024/03/22 00:22:20;;;;;;;16.90;7.80;;;;;;;5.24;58.96;100920.57;105318;1259;65742;-59
2024/03/22 00:24:47;;;;;;;15.60;7.30;;;;;;;5.30;58.95;100921.83;106252;1257;62173;-60
2024/03/22 00:27:14;;;;;;;15.50;7.90;;;;;;;5.33;58.93;100919.05;106318;1257;62416;-58
2024/03/22 00:29:42;;;;;;;21.40;10.50;;;;;;;5.37;58.86;100918.70;105359;1256;61415;-58
2024/03/22 00:32:11;;;;;;;18.90;11.40;;;;;;;5.38;58.92;100916.77;105446;1257;61719;-59
2024/03/22 00:34:39;;;;;;;18.50;11.10;;;;;;;5.34;58.91;100917.45;105354;1266;75097;-60
2024/03/22 00:37:06;;;;;;;22.70;9.80;;;;;;;5.30;58.84;100912.27;105911;1257;61867;-58
2024/03/22 00:39:35;;;;;;;22.00;12.40;;;;;;;5.24;58.80;100909.97;105799;1256;63723;-59
2024/03/22 00:42:03;;;;;;;26.00;13.30;;;;;;;5.16;58.61;100910.38;106737;1256;61449;-59
2024/03/22 00:44:30;;;;;;;22.60;12.50;;;;;;;5.07;58.68;100908.51;106382;1251;61155;-58
2024/03/22 00:46:59;;;;;;;25.50;14.30;;;;;;;5.00;58.57;100910.91;105910;1257;65725;-59
2024/03/22 00:49:26;;;;;;;19.30;10.80;;;;;;;4.93;58.66;100912.48;106760;1251;61411;-59
2024/03/22 00:51:56;;;;;;;23.50;11.20;;;;;;;4.88;58.75;100909.45;106061;1258;63804;-59
2024/03/22 00:54:23;;;;;;;22.80;11.80;;;;;;;4.84;58.90;100910.66;105661;1257;59909;-59
2024/03/22 00:56:51;;;;;;;23.60;11.50;;;;;;;4.80;59.08;100907.55;105455;1257;61129;-60
2024/03/22 00:59:18;;;;;;;20.80;11.50;;;;;;;4.75;59.18;100905.52;106443;1251;64590;-59
2024/03/22 01:01:45;;;;;;;21.60;11.70;;;;;;;4.72;59.30;100904.27;105434;1257;62322;-60
2024/03/22 01:04:13;;;;;;;25.30;11.90;;;;;;;4.72;59.43;100905.16;106318;1257;64306;-60
2024/03/22 01:06:40;;;;;;;20.90;10.60;;;;;;;4.71;59.44;100900.48;106245;1256;61356;-60
2024/03/22 01:09:08;;;;;;;19.80;9.90;;;;;;;4.69;59.41;100897.80;106303;1256;61445;-60
2024/03/22 01:11:35;;;;;;;15.60;7.40;;;;;;;4.70;59.46;100897.42;106336;1251;65746;-59
2024/03/22 01:14:03;;;;;;;16.90;8.20;;;;;;;4.77;59.31;100894.85;106272;1257;61311;-58
2024/03/22 01:16:30;;;;;;;14.20;7.30;;;;;;;4.81;59.03;100893.75;106268;1254;63779;-58
2024/03/22 01:18:58;;;;;;;14.40;6.00;;;;;;;4.87;58.91;100890.52;106002;1259;271593;-59
2024/03/22 01:23:31;;;;;;;19.30;9.30;;;;;;;4.63;60.13;100892.88;103130;1294;599649;-60
2024/03/22 01:25:59;;;;;;;20.30;9.30;;;;;;;4.98;59.18;100892.07;105448;1264;59928;-59
2024/03/22 01:28:26;;;;;;;19.30;11.80;;;;;;;5.07;58.95;100890.63;105493;1267;60369;-59
2024/03/22 01:30:53;;;;;;;21.10;11.10;;;;;;;5.04;58.67;100897.01;105402;1270;72980;-58
2024/03/22 01:33:21;;;;;;;17.60;9.00;;;;;;;4.95;58.56;100896.41;105605;1264;60223;-59
2024/03/22 01:35:48;;;;;;;19.50;12.50;;;;;;;4.82;58.70;100895.83;104350;1267;64282;-58
2024/03/22 01:38:16;;;;;;;23.60;10.70;;;;;;;4.73;58.81;100897.63;104428;1261;250325;-59
2024/03/22 01:40:43;;;;;;;20.20;12.50;;;;;;;4.67;59.03;100898.07;105089;1264;60386;-59
2024/03/22 01:43:11;;;;;;;18.30;10.70;;;;;;;4.60;59.10;100898.06;105660;1264;64125;-58
2024/03/22 01:45:38;;;;;;;21.10;12.30;;;;;;;4.52;59.17;100901.20;106491;1264;61416;-59
2024/03/22 01:48:07;;;;;;;27.00;12.50;;;;;;;4.47;59.32;100900.56;105628;1267;63735;-59
2024/03/22 01:50:34;;;;;;;23.90;11.50;;;;;;;4.43;59.47;100900.60;105541;1271;60587;-60
2024/03/22 01:53:02;;;;;;;21.40;14.00;;;;;;;4.39;59.58;100903.23;105519;1264;60459;-60
2024/03/22 01:55:30;;;;;;;27.10;15.30;;;;;;;4.35;59.59;100902.16;105513;1263;63681;-59
2024/03/22 01:57:57;;;;;;;26.80;14.40;;;;;;;4.33;59.69;100898.08;105582;1264;60558;-58
2024/03/22 02:00:25;;;;;;;27.50;11.70;;;;;;;4.32;59.75;100895.89;104620;1264;63740;-58
2024/03/22 02:02:52;;;;;;;22.10;12.10;;;;;;;4.31;59.63;100898.53;107057;1266;60504;-59
2024/03/22 02:05:21;;;;;;;21.60;12.00;;;;;;;4.27;59.53;100898.20;104821;1267;61729;-58
2024/03/22 02:07:48;;;;;;;17.50;10.00;;;;;;;4.23;59.70;100895.26;104640;1262;63608;-58
2024/03/22 02:10:18;;;;;;;15.40;7.60;;;;;;;4.26;59.79;100897.36;104616;1267;61578;-59
2024/03/22 02:12:45;;;;;;;14.10;7.30;;;;;;;4.34;59.68;100896.68;104558;1267;62682;-59
2024/03/22 02:15:13;;;;;;;15.70;8.40;;;;;;;4.40;59.62;100898.27;105413;1264;60485;-60
2024/03/22 02:17:40;;;;;;;13.90;6.60;;;;;;;4.46;59.63;100895.23;105552;1264;60538;-60
2024/03/22 02:20:08;;;;;;;14.50;5.50;;;;;;;4.52;59.59;100892.73;105674;1264;63675;-60
2024/03/22 02:22:36;;;;;;;14.30;7.50;;;;;;;4.56;59.46;100890.42;105889;1261;61428;-60
2024/03/22 02:25:03;;;;;;;16.20;7.80;;;;;;;4.56;59.45;100894.60;105630;1264;63766;-60
2024/03/22 02:27:31;;;;;;;15.60;9.90;;;;;;;4.53;59.54;100895.42;106143;1254;60526;-60
2024/03/22 02:29:58;;;;;;;17.10;9.50;;;;;;;4.48;59.43;100897.23;106194;1260;59335;-61
2024/03/22 02:32:26;;;;;;;34.10;12.00;;;;;;;4.42;59.44;100895.95;109153;1251;65534;-62
2024/03/22 02:34:53;;;;;;;20.20;10.50;;;;;;;4.38;59.49;100894.56;108847;1251;60360;-61
2024/03/22 02:37:28;;;;;;;24.40;12.90;;;;;;;4.31;59.43;100897.84;106236;1251;62513;-60
2024/03/22 02:39:55;;;;;;;22.00;10.80;;;;;;;4.25;59.48;100901.41;106365;1251;60385;-61
2024/03/22 02:42:23;;;;;;;18.50;10.20;;;;;;;4.18;59.67;100897.53;106296;1251;60540;-60
2024/03/22 02:44:52;;;;;;;19.40;12.30;;;;;;;4.15;59.69;100896.30;106375;1257;65032;-60
2024/03/22 02:47:20;;;;;;;30.00;11.30;;;;;;;4.12;59.82;100895.38;106349;1257;60439;-60
2024/03/22 02:49:51;;;;;;;25.60;12.80;;;;;;;4.13;59.85;100895.20;106293;1253;62536;-59
2024/03/22 02:52:18;;;;;;;21.60;11.80;;;;;;;4.08;59.92;100892.77;106170;1251;60533;-58
2024/03/22 02:54:46;;;;;;;21.70;12.20;;;;;;;4.06;59.84;100893.06;105506;1251;60409;-59
2024/03/22 02:57:13;;;;;;;27.30;15.10;;;;;;;4.02;60.01;100894.09;106444;1251;64905;-59
2024/03/22 02:59:41;;;;;;;25.00;12.20;;;;;;;4.01;59.97;100894.34;105519;1251;60545;-58
2024/03/22 03:02:09;;;;;;;21.00;10.50;;;;;;;3.98;59.92;100894.27;105421;1256;62496;-59
2024/03/22 03:04:36;;;;;;;21.00;9.70;;;;;;;4.01;59.90;100893.27;106078;1256;60420;-59
2024/03/22 03:07:04;;;;;;;19.30;8.30;;;;;;;4.07;60.00;100889.17;105379;1257;60306;-59
2024/03/22 03:09:31;;;;;;;14.00;7.10;;;;;;;4.13;60.00;100889.45;105323;1257;65480;-60
2024/03/22 03:11:59;;;;;;;17.20;8.00;;;;;;;4.21;59.93;100892.57;106302;1252;60456;-58
2024/03/22 03:14:26;;;;;;;16.30;8.60;;;;;;;4.30;59.86;100892.15;106111;1251;64273;-57
2024/03/22 03:16:54;;;;;;;15.40;7.40;;;;;;;4.37;59.75;100889.42;105515;1251;60562;-58
2024/03/22 03:19:21;;;;;;;17.00;9.00;;;;;;;4.41;59.76;100889.39;106210;1256;60543;-59
2024/03/22 03:21:49;;;;;;;24.70;10.60;;;;;;;4.44;59.66;100891.17;105485;1251;65020;-60
2024/03/22 03:24:16;;;;;;;20.20;10.10;;;;;;;4.44;59.72;100892.38;105581;1255;60351;-59
2024/03/22 03:26:44;;;;;;;20.30;10.80;;;;;;;4.41;59.64;100893.03;105463;1257;62466;-60
2024/03/22 03:29:11;;;;;;;20.50;10.20;;;;;;;4.35;59.54;100892.97;105678;1254;60523;-60
2024/03/22 03:31:39;;;;;;;22.60;12.40;;;;;;;4.28;59.62;100891.02;106134;1251;60581;-59
2024/03/22 03:34:06;;;;;;;28.60;14.30;;;;;;;4.24;59.58;100893.98;106283;1251;64859;-59
2024/03/22 03:36:34;;;;;;;28.70;14.00;;;;;;;4.20;59.70;100888.95;106388;1251;62090;-59
2024/03/22 03:39:01;;;;;;;22.90;14.40;;;;;;;4.17;59.66;100888.08;105468;1256;62498;-59
2024/03/22 03:41:29;;;;;;;26.10;14.90;;;;;;;4.10;59.50;100891.13;106348;1251;60853;-59
2024/03/22 03:43:56;;;;;;;21.30;11.20;;;;;;;4.04;59.66;100892.95;105941;1251;60485;-59
2024/03/22 03:46:24;;;;;;;23.80;11.70;;;;;;;3.98;59.65;100892.02;105995;1251;63614;-59
2024/03/22 03:48:51;;;;;;;25.40;13.20;;;;;;;3.89;59.77;100890.84;105380;1257;61386;-59
2024/03/22 03:51:19;;;;;;;21.00;11.10;;;;;;;3.81;59.87;100891.52;105619;1251;62416;-58
2024/03/22 03:53:47;;;;;;;25.10;13.80;;;;;;;3.73;59.85;100888.42;105994;1251;60430;-60
2024/03/22 03:56:14;;;;;;;25.00;11.10;;;;;;;3.62;59.90;100890.27;106334;1251;60587;-60
2024/03/22 03:58:42;;;;;;;23.10;12.40;;;;;;;3.57;60.07;100889.30;105953;1252;63613;-60
2024/03/22 04:01:09;;;;;;;23.70;11.70;;;;;;;3.57;60.30;100889.48;106405;1251;61806;-60
2024/03/22 04:03:36;;;;;;;16.30;6.80;;;;;;;3.62;60.25;100888.39;106389;1256;63869;-60
2024/03/22 04:06:04;;;;;;;13.30;7.20;;;;;;;3.68;60.06;100887.24;106444;1256;60444;-60
2024/03/22 04:08:31;;;;;;;17.90;8.60;;;;;;;3.73;60.08;100885.48;106310;1251;60539;-60
2024/03/22 04:10:59;;;;;;;20.50;7.20;;;;;;;3.81;60.08;100889.65;106402;1256;64955;-61
2024/03/22 04:13:27;;;;;;;16.50;10.50;;;;;;;3.87;60.04;100893.18;106226;1251;61381;-59
2024/03/22 04:15:58;;;;;;;16.60;7.80;;;;;;;3.95;59.98;100892.50;106448;1251;63774;-59
2024/03/22 04:18:25;;;;;;;20.60;9.00;;;;;;;4.02;59.96;100891.46;105905;1251;61005;-61
2024/03/22 04:20:56;;;;;;;23.80;11.40;;;;;;;4.06;60.06;100893.89;106414;1252;60567;-59
2024/03/22 04:23:24;;;;;;;18.90;10.60;;;;;;;4.09;60.20;100896.02;105606;1251;63646;-61
2024/03/22 04:25:58;;;;;;;21.10;10.00;;;;;;;4.10;60.16;100897.38;106153;1251;61357;-59
2024/03/22 04:28:27;;;;;;;25.10;12.90;;;;;;;4.02;60.04;100899.98;107139;1251;64283;-60
2024/03/22 04:31:03;;;;;;;25.60;12.10;;;;;;;3.96;60.20;100902.67;106882;1251;60466;-59
2024/03/22 04:33:32;;;;;;;20.40;12.30;;;;;;;3.96;60.28;100901.16;106092;1251;60459;-59
2024/03/22 04:36:00;;;;;;;20.40;11.60;;;;;;;3.95;60.39;100900.83;106758;1251;72951;-58
2024/03/22 04:38:28;;;;;;;26.80;14.40;;;;;;;3.95;60.46;100898.75;106155;1251;61586;-57
2024/03/22 04:40:56;;;;;;;20.30;15.40;;;;;;;3.96;60.72;100900.63;108599;1253;62440;-58
2024/03/22 04:43:24;;;;;;;25.40;13.20;;;;;;;3.98;60.83;100898.43;106160;1251;60577;-57
2024/03/22 04:45:52;;;;;;;37.60;28.00;;;;;;;4.01;60.82;100895.35;106147;1256;60515;-56
2024/03/22 04:48:21;;;;;;;18.70;10.30;;;;;;;4.05;60.89;100894.66;106251;1251;63641;-59
2024/03/22 04:50:50;;;;;;;18.30;7.90;;;;;;;4.15;60.87;100895.59;105522;1256;64509;-55
2024/03/22 04:53:18;;;;;;;22.90;10.40;;;;;;;4.26;60.66;100899.81;105458;1251;64183;-57
2024/03/22 04:55:45;;;;;;;18.70;9.80;;;;;;;4.33;60.53;100898.24;105631;1251;60510;-59
2024/03/22 04:58:18;;;;;;;18.80;8.70;;;;;;;4.40;60.50;100899.88;105644;1257;60447;-59
2024/03/22 05:00:46;;;;;;;15.90;8.30;;;;;;;4.45;60.43;100901.56;105560;1253;65390;-59
2024/03/22 05:03:14;;;;;;;21.40;10.70;;;;;;;4.53;60.42;100895.94;105397;1251;62478;-56
2024/03/22 05:05:43;;;;;;;18.60;11.00;;;;;;;4.59;60.38;100897.05;105653;1251;65771;-60
2024/03/22 05:08:11;;;;;;;23.40;10.90;;;;;;;4.61;60.41;100896.45;105403;1257;60527;-58
2024/03/22 05:10:40;;;;;;;20.50;12.50;;;;;;;4.63;60.40;100894.96;105743;1251;60552;-57
2024/03/22 05:13:07;;;;;;;29.10;14.40;;;;;;;4.63;60.39;100896.73;105566;1251;64938;-59
2024/03/22 05:15:37;;;;;;;24.90;15.60;;;;;;;4.60;60.32;100897.89;105616;1251;61326;-58
2024/03/22 05:18:05;;;;;;;24.30;13.60;;;;;;;4.55;60.36;100900.05;105986;1254;62609;-62
2024/03/22 05:20:33;;;;;;;28.00;12.70;;;;;;;4.52;60.52;100902.30;105517;1251;60434;-71
2024/03/22 05:23:02;;;;;;;34.00;16.00;;;;;;;4.53;60.73;100902.91;105617;1251;60382;-61
2024/03/22 05:25:34;;;;;;;29.70;16.40;;;;;;;4.54;60.90;100904.60;105688;1254;65076;-67
2024/03/22 05:28:04;;;;;;;38.20;18.10;;;;;;;4.57;60.90;100904.30;105455;1251;60895;-62
2024/03/22 05:30:37;;;;;;;26.50;15.80;;;;;;;4.58;61.12;100905.60;106370;1256;63778;-70
2024/03/22 05:33:06;;;;;;;29.60;15.90;;;;;;;4.62;61.32;100904.88;106067;1256;61697;-66
2024/03/22 05:35:36;;;;;;;26.90;16.00;;;;;;;4.70;61.54;100901.77;105455;1251;61613;-70
2024/03/22 05:38:03;;;;;;;20.10;8.30;;;;;;;4.82;61.52;100903.47;106610;1251;65727;-62
2024/03/22 05:40:31;;;;;;;18.30;10.20;;;;;;;4.98;61.43;100901.84;105897;1251;61370;-62
2024/03/22 05:42:59;;;;;;;24.30;11.90;;;;;;;5.16;61.44;100898.51;109257;1253;62476;-59
2024/03/22 05:45:26;;;;;;;24.70;11.90;;;;;;;5.36;61.32;100893.20;109157;1253;58993;-60
2024/03/22 05:47:54;;;;;;;26.10;13.60;;;;;;;5.54;61.08;100891.05;109173;1253;59212;-60
2024/03/22 05:50:21;;;;;;;20.60;11.60;;;;;;;5.72;60.77;100891.00;109269;1251;66139;-55
2024/03/22 05:52:49;;;;;;;40.30;17.00;;;;;;;5.88;60.56;100890.52;109285;1251;60071;-64
2024/03/22 05:55:16;;;;;;;28.90;17.80;;;;;;;6.02;60.55;100887.05;109308;1253;63712;-60
2024/03/22 05:57:44;;;;;;;28.00;16.50;;;;;;;6.14;60.48;100888.48;109315;1253;59110;-62
2024/03/22 06:00:13;;;;;;;30.80;19.00;;;;;;;6.24;60.18;100886.55;109333;1251;59055;-72
2024/03/22 06:02:41;;;;;;;33.80;18.00;;;;;;;6.35;59.93;100887.40;109259;1253;64477;-69
2024/03/22 06:05:08;;;;;;;35.00;18.20;;;;;;;6.45;59.82;100890.48;109320;1251;61991;-65
2024/03/22 06:07:41;;;;;;;54.60;41.30;;;;;;;6.54;59.62;100891.40;109266;1251;64264;-64
2024/03/22 06:10:12;;;;;;;41.20;20.50;;;;;;;6.65;59.42;100894.48;109321;1253;59754;-68
2024/03/22 06:12:41;;;;;;;39.30;21.50;;;;;;;6.74;59.30;100898.34;109311;1252;59279;-68
2024/03/22 06:15:08;;;;;;;36.40;19.90;;;;;;;6.83;59.20;100897.31;109330;1252;66220;-68
2024/03/22 06:17:36;;;;;;;40.00;19.80;;;;;;;6.92;59.15;100899.06;108326;1253;61513;-66
2024/03/22 06:20:05;;;;;;;64.50;45.00;;;;;;;6.95;59.14;100898.02;105939;1254;63769;-64
2024/03/22 06:22:32;;;;;;;37.30;21.60;;;;;;;6.97;59.16;100897.38;106843;1253;61573;-64
2024/03/22 06:25:00;;;;;;;36.70;18.70;;;;;;;7.07;58.90;100901.54;105566;1256;61227;-62
2024/03/22 06:27:27;;;;;;;31.80;17.80;;;;;;;7.20;58.87;100898.66;105432;1256;65706;-63
2024/03/22 06:29:55;;;;;;;29.70;17.60;;;;;;;7.34;58.89;100899.26;105414;1253;61352;-67
2024/03/22 06:32:22;;;;;;;59.90;41.40;;;;;;;7.50;58.62;100900.25;106161;1252;75010;-65
2024/03/22 06:34:50;;;;;;;34.20;19.40;;;;;;;7.65;58.52;100897.62;105521;1254;61337;-64
2024/03/22 06:37:18;;;;;;;38.40;21.70;;;;;;;7.77;58.26;100895.89;105416;1254;61362;-63
2024/03/22 06:39:45;;;;;;;59.00;44.90;;;;;;;7.86;58.05;100897.98;105552;1256;75878;-56
2024/03/22 06:42:13;;;;;;;30.90;18.90;;;;;;;7.92;57.61;100899.19;105637;1251;72613;-57
2024/03/22 06:44:42;;;;;;;39.70;19.90;;;;;;;7.96;57.52;100901.56;105350;1253;73727;-56
2024/03/22 06:47:10;;;;;;;39.70;20.50;;;;;;;7.98;57.35;100897.92;105312;1254;61236;-56
2024/03/22 06:49:37;;;;;;;37.70;21.80;;;;;;;7.99;57.17;100900.30;105214;1254;61302;-56
2024/03/22 06:52:06;;;;;;;63.60;46.30;;;;;;;7.98;57.20;100901.27;105347;1251;68344;-56
2024/03/22 06:54:33;;;;;;;34.60;19.40;;;;;;;7.97;57.20;100899.73;107455;1253;61246;-60
2024/03/22 06:57:01;;;;;;;55.10;41.40;;;;;;;8.01;57.12;100904.20;105129;1257;66128;-60
2024/03/22 06:59:28;;;;;;;30.10;15.00;;;;;;;8.08;57.06;100903.25;105197;1251;61240;-61
2024/03/22 07:01:56;;;;;;;37.90;17.20;;;;;;;8.17;57.15;100900.77;109271;1251;59361;-59
2024/03/22 07:04:24;;;;;;;34.00;17.60;;;;;;;8.29;56.95;100898.65;109259;1252;67727;-58
2024/03/22 07:06:51;;;;;;;63.20;45.90;;;;;;;8.41;56.77;100895.67;109305;1251;71039;-59
2024/03/22 07:09:19;;;;;;;36.00;21.90;;;;;;;8.50;56.64;100892.09;109252;1251;68146;-59
2024/03/22 07:11:46;;;;;;;34.30;19.10;;;;;;;8.62;56.47;100890.66;109279;1252;59655;-58
2024/03/22 07:14:14;;;;;;;52.50;40.90;;;;;;;8.72;56.10;100888.98;109231;1251;59032;-60
2024/03/22 07:16:41;;;;;;;32.90;18.50;;;;;;;8.82;55.82;100890.81;109311;1250;64506;-59
2024/03/22 07:19:09;;;;;;;35.90;18.50;;;;;;;8.88;55.29;100886.71;109326;1253;62399;-59
2024/03/22 07:21:36;;;;;;;54.30;38.80;;;;;;;8.95;54.87;100885.11;107351;1251;64182;-58
2024/03/22 07:24:04;;;;;;;32.20;16.30;;;;;;;9.00;54.59;100879.34;105351;1252;62505;-59
2024/03/22 07:26:31;;;;;;;46.70;36.80;;;;;;;9.04;54.48;100881.48;105436;1254;61223;-60
2024/03/22 07:28:59;;;;;;;31.40;17.70;;;;;;;9.08;54.19;100883.15;105367;1254;64556;-63
2024/03/22 07:31:26;;;;;;;38.90;17.80;;;;;;;9.15;53.90;100882.56;105471;1253;61449;-60
2024/03/22 07:33:55;;;;;;;33.30;16.30;;;;;;;9.23;53.92;100883.56;105997;1253;63675;-61
2024/03/22 07:36:23;;;;;;;44.20;31.80;;;;;;;9.31;53.78;100882.70;107042;1253;61313;-60
2024/03/22 07:38:50;;;;;;;25.90;13.10;;;;;;;9.38;53.62;100885.39;105463;1254;61274;-60
2024/03/22 07:41:18;;;;;;;36.90;27.80;;;;;;;9.44;53.40;100885.84;105500;1254;66795;-60
2024/03/22 07:43:46;;;;;;;25.70;14.40;;;;;;;9.51;53.28;100890.32;105641;1254;63349;-60
2024/03/22 07:46:15;;;;;;;41.30;29.80;;;;;;;9.59;53.10;100888.74;105599;1256;64727;-60
2024/03/22 07:48:42;;;;;;;27.40;14.00;;;;;;;9.64;53.05;100887.27;105740;1251;61233;-61
2024/03/22 07:51:10;;;;;;;36.70;29.20;;;;;;;9.71;53.04;100882.66;105537;1251;62273;-60
2024/03/22 07:53:37;;;;;;;23.90;13.10;;;;;;;9.76;53.10;100879.69;105549;1251;65800;-59
2024/03/22 07:56:08;;;;;;;36.50;27.70;;;;;;;9.82;53.17;100880.11;106114;1256;61277;-59
2024/03/22 07:58:36;;;;;;;22.80;13.30;;;;;;;9.90;53.10;100879.77;105553;1254;64351;-60
2024/03/22 08:01:05;;;;;;;39.80;28.90;;;;;;;9.99;53.11;100875.98;105299;1251;61428;-62
2024/03/22 08:03:33;;;;;;;24.30;13.20;;;;;;;10.08;52.96;100871.71;106638;1253;61295;-61
2024/03/22 08:06:00;;;;;;;34.80;23.90;;;;;;;10.20;52.58;100870.64;105431;1256;68224;-62
2024/03/22 08:08:29;;;;;;;18.80;11.20;;;;;;;10.36;52.22;100867.27;105828;1251;63844;-62
2024/03/22 08:10:59;;;;;;;33.50;24.60;;;;;;;10.51;51.94;100862.72;109301;1253;64697;-64
2024/03/22 08:13:28;;;;;;;33.50;23.60;;;;;;;10.63;51.94;100860.07;109307;1251;58981;-63
2024/03/22 08:15:55;;;;;;;21.10;10.80;;;;;;;10.75;51.72;100861.86;109327;1251;59376;-61
2024/03/22 08:18:23;;;;;;;40.00;28.20;;;;;;;10.87;51.19;100860.13;109306;1252;74567;-63
2024/03/22 08:20:51;;;;;;;32.00;23.30;;;;;;;10.96;50.71;100860.48;109353;1251;73034;-60
2024/03/22 08:23:20;;;;;;;21.10;10.30;;;;;;;11.03;50.48;100858.77;107125;1254;74880;-62
2024/03/22 08:25:48;;;;;;;34.40;23.80;;;;;;;11.09;50.30;100858.80;105358;1251;61327;-62
2024/03/22 08:28:17;;;;;;;28.50;21.10;;;;;;;11.18;49.98;100852.52;105484;1251;63016;-63
2024/03/22 08:31:04;;;;;;;26.10;19.50;;;;;;;11.28;49.47;100850.23;105257;1254;76047;-62
2024/03/22 08:33:31;;;;;;;15.40;9.90;;;;;;;11.34;49.23;100847.64;105950;1254;72888;-61
2024/03/22 08:36:00;;;;;;;26.00;18.80;;;;;;;11.39;48.85;100845.69;105225;1253;68672;-60
2024/03/22 08:38:28;;;;;;;28.80;19.70;;;;;;;11.44;48.49;100840.73;105938;1251;61377;-65
2024/03/22 08:40:55;;;;;;;24.90;18.00;;;;;;;11.49;48.24;100840.51;105298;1251;61340;-60
2024/03/22 08:43:25;;;;;;;28.40;17.00;;;;;;;11.55;47.90;100838.19;105368;1251;66783;-62
2024/03/22 08:45:53;;;;;;;13.00;6.60;;;;;;;11.60;47.59;100837.25;107053;1253;61868;-59
2024/03/22 08:48:22;;;;;;;18.00;12.40;;;;;;;11.66;47.06;100835.55;105568;1254;64066;-62
2024/03/22 08:50:50;;;;;;;19.70;12.70;;;;;;;11.73;46.85;100831.66;106232;1251;61425;-62
2024/03/22 08:53:18;;;;;;;19.40;11.50;;;;;;;11.85;46.81;100834.10;106305;1251;62224;-63
2024/03/22 08:55:47;;;;;;;16.80;11.90;;;;;;;11.93;46.22;100825.92;105589;1254;67915;-59
2024/03/22 08:58:17;;;;;;;16.80;11.40;;;;;;;12.01;45.90;100823.70;105520;1254;64093;-62
2024/03/22 09:00:44;;;;;;;19.60;12.50;;;;;;;12.11;45.59;100819.92;105477;1256;64111;-64
2024/03/22 09:03:13;;;;;;;19.10;11.20;;;;;;;12.21;45.44;100815.83;105352;1254;61150;-61
2024/03/22 09:05:41;;;;;;;14.90;10.00;;;;;;;12.32;45.07;100816.19;105377;1253;61439;-61
2024/03/22 09:08:17;;;;;;;17.30;10.90;;;;;;;12.39;44.51;100813.61;105545;1254;64903;-61
2024/03/22 09:10:45;;;;;;;16.10;10.10;;;;;;;12.49;44.34;100812.27;105321;1251;62244;-60
2024/03/22 09:13:12;;;;;;;13.70;9.20;;;;;;;12.60;44.08;100814.60;105273;1254;74905;-63
2024/03/22 09:15:40;;;;;;;13.70;8.30;;;;;;;12.68;43.64;100809.02;105650;1254;62383;-60
2024/03/22 09:18:08;;;;;;;15.20;8.40;;;;;;;12.74;43.38;100804.80;105460;1256;62537;-62
2024/03/22 09:20:36;;;;;;;13.70;9.10;;;;;;;12.82;43.63;100803.80;105496;1256;64852;-59
2024/03/22 09:23:04;;;;;;;12.50;8.80;;;;;;;12.93;43.32;100799.03;105273;1251;71157;-60
2024/03/22 09:25:32;;;;;;;18.40;10.70;;;;;;;13.02;43.04;100797.05;105884;1254;64111;-60
2024/03/22 09:27:59;;;;;;;19.70;10.90;;;;;;;13.12;42.71;100792.48;105325;1253;61626;-63
2024/03/22 09:30:27;;;;;;;18.50;10.20;;;;;;;13.22;42.29;100790.76;105310;1256;61257;-59
2024/03/22 09:33:00;;;;;;;13.10;8.10;;;;;;;13.31;41.87;100788.30;105360;1256;68010;-60
2024/03/22 09:35:27;;;;;;;13.70;8.00;;;;;;;13.36;41.22;100783.29;105366;1254;72729;-60
2024/03/22 09:37:55;;;;;;;16.30;8.70;;;;;;;13.40;40.48;100782.08;105364;1256;74851;-60
2024/03/22 09:40:22;;;;;;;16.30;7.40;;;;;;;13.44;40.31;100784.55;105148;1254;61371;-59
2024/03/22 09:42:50;;;;;;;15.00;7.00;;;;;;;13.47;39.82;100783.25;105033;1254;61305;-59
2024/03/22 09:45:18;;;;;;;12.80;7.50;;;;;;;13.52;39.25;100775.01;105225;1254;76944;-62
2024/03/22 09:47:48;;;;;;;17.90;7.80;;;;;;;13.59;39.09;100775.38;105139;1256;71452;-59
2024/03/22 09:50:15;;;;;;;16.10;9.30;;;;;;;13.64;39.05;100774.05;109271;1254;64345;-67
2024/03/22 09:52:43;;;;;;;13.70;8.40;;;;;;;13.68;39.18;100770.89;109266;1252;62677;-57
2024/03/22 09:55:13;;;;;;;12.00;7.50;;;;;;;13.74;39.02;100769.66;109335;1251;58949;-57
2024/03/22 09:57:40;;;;;;;10.40;6.90;;;;;;;13.83;39.29;100768.52;109292;1251;66744;-69
2024/03/22 10:00:09;;;;;;;11.80;6.60;;;;;;;13.97;39.33;100770.26;109291;1253;60503;-68
2024/03/22 10:02:40;;;;;;;13.30;7.80;;;;;;;14.14;38.77;100763.86;109280;1253;74824;-69
2024/03/22 10:05:08;;;;;;;11.90;6.30;;;;;;;14.20;38.16;100757.80;109320;1253;59236;-63
2024/03/22 10:07:36;;;;;;;12.60;6.10;;;;;;;14.20;37.78;100753.96;109420;1251;60955;-65
2024/03/22 10:10:07;;;;;;;12.90;6.00;;;;;;;14.19;37.96;100751.39;107420;1254;66086;-67
2024/03/22 10:12:39;;;;;;;12.40;6.10;;;;;;;14.18;37.57;100744.92;106597;1253;71410;-68
2024/03/22 10:15:08;;;;;;;9.70;5.80;;;;;;;14.16;37.42;100745.15;105539;1253;74916;-67
2024/03/22 10:17:39;;;;;;;9.60;6.30;;;;;;;14.14;37.47;100741.96;105783;1254;62354;-72
2024/03/22 10:20:13;;;;;;;10.70;6.00;;;;;;;14.12;37.73;100737.84;105506;1253;61359;-66
2024/03/22 10:23:00;;;;;;;11.40;5.70;;;;;;;14.13;37.63;100731.99;105673;1256;76854;-65
2024/03/22 10:25:28;;;;;;;10.40;5.70;;;;;;;14.13;37.89;100730.91;105490;1254;72564;-67
2024/03/22 10:27:56;;;;;;;9.20;5.90;;;;;;;14.12;37.73;100730.29;105580;1254;65860;-65
2024/03/22 10:30:24;;;;;;;9.30;4.90;;;;;;;14.07;37.28;100730.00;106070;1254;61323;-68
2024/03/22 10:32:52;;;;;;;10.20;5.70;;;;;;;14.02;37.50;100724.45;105427;1254;61186;-70
2024/03/22 10:35:20;;;;;;;12.30;5.10;;;;;;;13.98;37.25;100725.42;105324;1256;75740;-70
2024/03/22 10:37:48;;;;;;;10.00;5.20;;;;;;;13.94;36.93;100722.00;105360;1251;63827;-63
2024/03/22 10:40:19;;;;;;;10.00;5.30;;;;;;;13.92;36.69;100724.64;105360;1259;74859;-62
2024/03/22 10:42:47;;;;;;;9.70;5.50;;;;;;;13.92;36.54;100721.13;105322;1251;62320;-70
2024/03/22 10:45:15;;;;;;;11.90;5.60;;;;;;;13.92;36.12;100720.58;105394;1251;61493;-69
2024/03/22 10:47:43;;;;;;;9.50;5.00;;;;;;;13.92;35.95;100720.58;105336;1253;67991;-67
2024/03/22 10:50:11;;;;;;;8.80;5.40;;;;;;;13.95;36.20;100719.33;105455;1254;63800;-68
2024/03/22 10:53:00;;;;;;;8.60;5.10;;;;;;;13.97;36.52;100719.83;105756;1254;62589;-68
2024/03/22 10:55:32;;;;;;;10.20;6.40;;;;;;;14.01;36.78;100715.99;105983;1251;61210;-57
2024/03/22 10:58:00;;;;;;;10.20;5.80;;;;;;;14.03;36.80;100711.16;106060;1251;61395;-66
2024/03/22 11:00:32;;;;;;;15.00;5.60;;;;;;;14.06;36.59;100708.80;106092;1256;68654;-62
2024/03/22 11:03:04;;;;;;;7.80;4.50;;;;;;;14.09;36.52;100702.69;105969;1251;62030;-63
2024/03/22 11:05:34;;;;;;;7.30;4.00;;;;;;;14.11;36.72;100702.52;105461;1253;75391;-69
2024/03/22 11:08:04;;;;;;;7.60;4.40;;;;;;;14.11;36.47;100699.66;106093;1256;61375;-64
2024/03/22 11:10:35;;;;;;;7.80;4.50;;;;;;;14.10;36.20;100701.16;106021;1256;61385;-63
2024/03/22 11:13:03;;;;;;;10.30;3.80;;;;;;;14.11;35.94;100699.91;105515;1251;65882;-69
2024/03/22 11:15:32;;;;;;;8.00;4.30;;;;;;;14.11;36.00;100699.55;105767;1257;71449;-66